map of SOW home
SOW - Airport
Location
City:  Show Low, Arizona, United States
Name:Show Low Regional
ICAO:KSOW
IATA:SOW
FAA LID:SOW

Details
Type:Airport (Part 139 Class III)
Use:Public/Civil
Latitude:3415'56"N (34.265472)
Longitude:11000'20"W (-110.005666)
Datum:WGS 1984
Elevation:6415 ft (1955 m)
Variation:9.67E (WMM2015v2 magnetic declination)
-0.09 annual change
Runways:2
Longest:7200 × 100 ft (2195 × 30.5 m), paved

Time
Time Zone:UTC-7
Local Time:

Weather
METAR:KSOW 041415Z AUTO 21012KT 2SM -RA FEW001 BKN009 OVC016 05/04 A2991 RMK AO2

Related Locations
Nearby:
Farthest:RRG: 11354 mi / 18272 km
Plaine Corail [Sir Gatan Duval Airport (Plaine Corail Airport)], Rodrigues Island, MU

Find:

   beyond  
but within

Other Information
Maps:
NOTAMs:
Links:
Sources:

  
  • flag of United States
  • flag of Arizona
  

Sectional Chart

Flight Planning
at skyvector.com

Satellite Image

Google Maps Satellite view

 

Copyright © 2004-2019 Karl L. Swartz. All rights reserved.
The Great Circle Mapper name and logo are trademarks of the Great Circle Mapper.
All other trademarks mentioned herein belong to their respective owners.
Please see credits for attibutions and further copyright information.

  Follow gcmap on Facebook Follow gcmap on Twitter GCmap on LinkedIn

hCard Microformat

Geo Microformat